AirNav   Air Wisconsin Up To $57,000 Bonus
 
 1614 users online  

KASG Springdale Municipal Airport
Springdale, Arkansas, USA

GOING TO SPRINGDALE?


FAA INFORMATION EFFECTIVE 22 APRIL 2021

Location

FAA Identifier: ASG
Lat/Long: 36-10-35.0000N 094-07-09.3000W
36-10.583333N 094-07.155000W
36.1763889,-94.1192500
(estimated)
Elevation: 1352.5 ft. / 412.2 m (surveyed)
Variation: 04E (1995)
From city: 1 mile SE of SPRINGDALE, AR
Time zone: UTC -5 (UTC -6 during Standard Time)
Zip code: 72764

Airport Operations

Airport use: Open to the public
Activation date: 04/1944
Control tower: yes
ARTCC: MEMPHIS CENTER
FSS: JONESBORO FLIGHT SERVICE STATION
NOTAMs facility: ASG (NOTAM-D service available)
Attendance: 0600-2100
FOR SVC AFT HRS CALL 479-751-4462.
Wind indicator: lighted
Segmented circle: yes
Lights: ACTVT HIRL RWY 18/36 - CTAF. WHEN ATCT CLSD ACTVT MALSF RWY 18 - CTAF. ACTVT REIL RWY 18 AND 36 - 122.8.
Beacon: white-green (lighted land airport)
Operates sunset to sunrise.

Airport Communications

CTAF: 118.2
UNICOM: 122.95
WX AWOS-3: 124.675 (479-750-2967)
SPRINGDALE GROUND: 121.6 [0600-2100]
SPRINGDALE TOWER: 118.2 [0600-2100]
RAZORBACK APPROACH: 126.6
RAZORBACK DEPARTURE: 126.6
WX ASOS at FYV (11 nm S): 119.575 (479-442-5237)
WX ASOS at XNA (11 nm NW): 119.425 (479-203-0109)
WX AWOS-3PT at VBT (11 nm NW): 134.975 (479-273-9198)
WX AWOS-3PT at ROG (12 nm N): 134.375 (479-631-9196)
WX AWOS-3PT at SLG (18 nm W): 118.375 (479-524-9893)
  • APCH/DEP SVC PRVDD BY MEMPHIS ARTCC ON FREQS 126.1/269.0 (FAYETTEVILLE RCAG) WHEN RAZORBACK APCH CTL CLSD.

Nearby radio navigation aids

VOR radial/distance  VOR name  Freq  Var
RZCr175/4.2RAZORBACK VORTAC116.4004E

 
NDB name  Hdg/Dist  Freq  Var  ID
SILOAM SPRINGS088/17.928404ESLG ... .-.. --.

Airport Services

Fuel available: 100LL JET-A
100LL AVBL 24 HRS SELF SERVE WITH CREDIT CARD.
Parking: hangars and tiedowns
Airframe service: MAJOR
Powerplant service: MAJOR
Bottled oxygen: LOW
Bulk oxygen: NONE

Runway Information

Runway 18/36

Dimensions: 5302 x 76 ft. / 1616 x 23 m
Surface: asphalt, in excellent condition
Weight bearing capacity: 
Single wheel: 35.0
Double wheel: 50.0
Double tandem: 90.0
Runway edge lights: high intensity
RUNWAY 18  RUNWAY 36
Latitude: 36-11.017568N36-10.150460N
Longitude: 094-07.088313W094-07.221405W
Elevation: 1339.2 ft.1352.4 ft.
Traffic pattern: leftleft
Runway heading: 183 magnetic, 187 true003 magnetic, 007 true
Displaced threshold: 363 ft.no
Markings: precision, in good conditionprecision, in good condition
Visual slope indicator: 4-light PAPI on left (3.00 degrees glide path)4-light PAPI on right (3.00 degrees glide path)
Approach lights: MALSF: 1,400 foot medium intensity approach lighting system with sequenced flashers
Runway end identifier lights: yesyes
Touchdown point: yes, no lightsyes, no lights
Instrument approach: ILS
Obstructions: none
APCH RATIO 50:1 FM DSPLCD THR.
40 ft. trees, 1750 ft. from runway, 400 ft. left of centerline, 38:1 slope to clear

Airport Ownership and Management from official FAA records

Ownership: Publicly-owned
Owner: CITY OF SPRINGDALE
CITY HALL, 201 SPRING ST
SPRINGDALE, AR 72764
Phone 479-750-8114
Manager: JAMES SMITH
802 AIRPORT AVENUE
SPRINGDALE, AR 72764
Phone 479-750-8585

Airport Operational Statistics

Aircraft based on the field: 90
Single engine airplanes: 74
Multi engine airplanes: 10
Jet airplanes: 3
Helicopters: 3
    
Aircraft operations: avg 171/day *
48% transient general aviation
45% local general aviation
7% air taxi
<1% military
* for 12-month period ending 30 April 2019

Additional Remarks

FOR CD WHEN UNA VIA FREQ CTC RAZORBACK APCH 479-649-2416, WHEN APCH CLSD CTC MEMPHIS ARTCC AT 901-368-8453/8449.

Instrument Procedures

NOTE: All procedures below are presented as PDF files. If you need a reader for these files, you should download the free Adobe Reader.

NOT FOR NAVIGATION. Please procure official charts for flight.
FAA instrument procedures published for use from 22 April 2021 at 0901Z to 20 May 2021 at 0900z.

 
IAPs - Instrument Approach Procedures
ILS OR LOC RWY 18   download (330KB)
RNAV (GPS) RWY 18 **CHANGED**   download (325KB)
RNAV (GPS) RWY 36 **CHANGED**   download (274KB)
NOTE: Special Alternate Minimums apply   download (33KB)
 
Departure Procedures
SPRING FIVE   download (260KB)
NOTE: Special Take-Off Minimums/Departure Procedures apply   download (131KB)

Other nearby airports with instrument procedures:

KFYV - Drake Field Airport (11 nm S)
KXNA - Northwest Arkansas National Airport (11 nm NW)
KVBT - Bentonville Municipal Airport/Louise M Thaden Field (11 nm NW)
KROG - Rogers Executive Airport - Carter Field (12 nm N)
KSLG - Smith Field Airport (18 nm W)
H34 - Huntsville Municipal Airport (19 nm E)
5M5 - Crystal Lake Airport (19 nm NW)
 
Loc | Ops | Rwys | IFR | FBO | Links
Com | Nav | Svcs | Stats | Notes

Branson Jet Center
AirBoss

 
Area around KASG (Springdale Municipal Airport)
 
Road maps at: MapQuest Bing Google
 
Aerial photo
WARNING: Photo may not be current or correct
Aerial photo of KASG (Springdale Municipal Airport)
Photo taken 19-May-2008

Do you have a better or more recent aerial photo of Springdale Municipal Airport that you would like to share? If so, please send us your photo.

 
Sectional chart

 
Airport diagram
CAUTION: Diagram may not be current
Diagram of KASG (Springdale Municipal Airport)
Download PDF
of official airport diagram from the FAA

 
Airport distance calculator
Flying to Springdale Municipal Airport? Find the distance to fly.

From to KASG

Sunrise and sunset
Times for 17-May-2021
 Local
(UTC-5)
 Zulu
(UTC)
Morning civil twilight05:4110:41
Sunrise06:1011:10
Sunset20:1601:16
Evening civil twilight20:4501:45

Current date and time
Zulu (UTC)  17-May-2021 19:30:04
Local (UTC-5)  17-May-2021 14:30:04
 
METAR
KASG 171848Z 16006G12KT 10SM FEW013 BKN019 OVC024 21/21 A2991
KFYV 
10nm S 
171853Z 16009KT 10SM BKN017 BKN023 OVC070 23/19 A2990 RMK AO2 SLP112 P0001 T02280194
KXNA 
11nm NW 
171907Z 18011KT 10SM SCT017 SCT055 BKN070 23/19 A2990 RMK AO2 T02330194
KVBT 
11nm NW 
171856Z AUTO 21010KT 10SM BKN015 BKN026 OVC033 23/19 A2992 RMK AO2 RAB04E25 SLP123 T02280194 TSNO PNO $
KROG 
12nm N 
171858Z 18014KT 10SM FEW014 BKN028 OVC036 22/18 A2990 RMK AO2 RAE13 SLP115 P0000 T02220183
KSLG 
17nm W 
171915Z AUTO 19013KT 10SM BKN016 BKN065 23/20 A2990 RMK AO2 TSNO
TAF
KFYV 
10nm S 
171720Z 1718/1818 18007KT P6SM BKN025 TEMPO 1718/1722 BKN035 FM180100 17004KT P6SM SCT035 BKN100 FM180600 17004KT P6SM SCT010 BKN015 FM181200 VRB03KT P6SM VCTS BKN015CB FM181500 VRB03KT P6SM BKN020
KXNA 
11nm NW 
171720Z 1718/1818 18008KT P6SM BKN025 TEMPO 1718/1722 BKN035 FM180100 17004KT P6SM SCT035 BKN100 FM180600 17004KT P6SM SCT010 BKN015 FM181200 VRB03KT P6SM VCTS BKN015CB FM181500 VRB03KT P6SM BKN020
KROG 
12nm N 
171720Z 1718/1818 12004KT P6SM BKN025 TEMPO 1718/1722 BKN035 FM180100 17004KT P6SM SCT035 BKN100 FM180600 17004KT P6SM SCT010 BKN015 FM181200 VRB03KT P6SM VCTS BKN015CB FM181500 VRB03KT P6SM BKN020
NOTAMs
Click for the latest NOTAMs
NOTAMs are issued by the DoD/FAA and will open in a separate window not controlled by AirNav.

 

 
 

FBO, Fuel Providers, and Aircraft Ground Support

  
 Business Name 
 
 Contact 
 
 Services / Description 
 
Fuel Prices
 
Comments
  
 Summit Aviation
479-751-4462
[web site]
[email]
Aviation fuel, Aircraft ground handling, Aircraft parking (ramp or tiedown), Hangars, Hangar leasing / sales, GPU / Power cart, ...
 
NATA Safety 1st   Contract Fuel   Courtesy car  
 
More info about Summit Aviation
Titan
100LL Jet A
FS $4.90 $4.70 
SS $4.55 --- 
 Updated 12-May-2021
 
   6 read write
FS=Full service
SS=Self service
Update Fuel Prices
 

Would you like to see your business listed on this page?

 If your business provides an interesting product or service to pilots, flight crews, aircraft, or users of the Springdale Municipal Airport, you should consider listing it here.  To start the listing process, click on the button below
 
Add a business
 

Other Pages about Springdale Municipal Airport

Update a link
 
Copyright © AirNav, LLC. All rights reserved. Privacy Policy  Contact